Time;durP1;ratioP1;P1;durP2;ratioP2;P2;SDS_P1;SDS_P2;PMS_P1;PMS_P2;Temp;Humidity;BMP_temperature;BMP_pressure;BME280_temperature;BME280_humidity;BME280_pressure;Samples;Min_cycle;Max_cycle;Signal;HPM_P1;HPM_P2
2024/03/10 00:01:48;;;;;;;68.97;29.83;;;4.90;99.90;;;;;;5062370;28;20066;-74
2024/03/10 00:04:14;;;;;;;66.38;30.25;;;4.90;99.90;;;;;;5061441;28;20029;-76
2024/03/10 00:06:39;;;;;;;65.25;29.23;;;4.80;99.90;;;;;;5061152;28;20024;-74
2024/03/10 00:09:05;;;;;;;69.47;29.40;;;4.80;99.90;;;;;;5061033;28;20029;-74
2024/03/10 00:11:30;;;;;;;69.72;29.65;;;4.80;99.90;;;;;;5062676;28;20029;-74
2024/03/10 00:13:56;;;;;;;65.85;30.48;;;4.70;99.90;;;;;;5062163;28;20055;-75
2024/03/10 00:16:23;;;;;;;66.38;29.95;;;4.80;99.90;;;;;;5061260;28;20045;-75
2024/03/10 00:18:49;;;;;;;71.07;31.13;;;4.70;99.90;;;;;;5062556;28;20040;-74
2024/03/10 00:21:15;;;;;;;70.68;31.08;;;4.80;99.90;;;;;;5061269;28;20052;-74
2024/03/10 00:23:40;;;;;;;72.78;31.60;;;4.80;99.90;;;;;;5061301;28;20410;-75
2024/03/10 00:26:06;;;;;;;68.18;31.52;;;4.70;99.90;;;;;;5062530;28;20159;-75
2024/03/10 00:28:33;;;;;;;73.25;31.05;;;4.70;99.90;;;;;;5060951;28;20119;-74
2024/03/10 00:30:59;;;;;;;72.93;31.60;;;4.70;99.90;;;;;;5061992;28;20090;-75
2024/03/10 00:33:25;;;;;;;69.90;31.45;;;4.70;99.90;;;;;;5058004;28;20033;-74
2024/03/10 00:35:51;;;;;;;72.78;31.70;;;4.70;99.90;;;;;;5060600;28;20021;-75
2024/03/10 00:38:18;;;;;;;77.82;33.35;;;4.60;99.90;;;;;;5057949;28;20078;-74
2024/03/10 00:40:44;;;;;;;73.80;32.22;;;4.60;99.90;;;;;;5061320;28;20454;-74
2024/03/10 00:43:10;;;;;;;71.90;31.45;;;4.60;99.90;;;;;;5060056;28;20021;-76
2024/03/10 00:45:35;;;;;;;74.82;32.53;;;4.60;99.90;;;;;;5060983;28;20045;-75
2024/03/10 00:48:01;;;;;;;71.63;32.47;;;4.50;99.90;;;;;;5059668;28;20048;-75
2024/03/10 00:50:26;;;;;;;78.15;32.50;;;4.60;99.90;;;;;;5061007;28;20036;-75
2024/03/10 00:52:53;;;;;;;77.10;32.90;;;4.60;99.90;;;;;;5060449;28;20033;-75
2024/03/10 00:55:19;;;;;;;72.07;32.88;;;4.60;99.90;;;;;;5061213;28;20024;-75
2024/03/10 00:57:45;;;;;;;75.30;32.78;;;4.60;99.90;;;;;;5061418;28;20029;-76
2024/03/10 01:00:11;;;;;;;72.25;32.22;;;4.50;99.90;;;;;;5061446;28;20033;-75
2024/03/10 01:02:40;;;;;;;76.20;33.47;;;4.50;99.90;;;;;;5061050;28;20060;-75
2024/03/10 01:05:06;;;;;;;75.93;34.22;;;4.50;99.90;;;;;;5059914;28;20036;-75
2024/03/10 01:07:33;;;;;;;76.47;33.65;;;4.40;99.90;;;;;;5060216;28;20126;-75
2024/03/10 01:09:58;;;;;;;79.57;33.45;;;4.40;99.90;;;;;;5060286;28;20082;-74
2024/03/10 01:12:24;;;;;;;79.15;33.47;;;4.40;99.90;;;;;;5060734;28;20029;-76
2024/03/10 01:14:50;;;;;;;78.28;33.40;;;4.40;99.90;;;;;;5059675;28;20021;-74
2024/03/10 01:17:15;;;;;;;81.80;33.45;;;4.40;99.90;;;;;;5058635;28;20021;-75
2024/03/10 01:19:44;;;;;;;78.18;33.63;;;4.40;99.90;;;;;;5060922;28;20083;-75
2024/03/10 01:22:11;;;;;;;72.18;32.63;;;4.40;99.90;;;;;;5060662;28;20029;-75
2024/03/10 01:24:37;;;;;;;83.00;34.28;;;4.40;99.90;;;;;;5059648;28;20025;-76
2024/03/10 01:27:03;;;;;;;74.72;33.53;;;4.40;99.90;;;;;;5059693;28;20140;-75
2024/03/10 01:29:30;;;;;;;73.78;32.13;;;4.40;99.90;;;;;;5058373;28;20155;-74
2024/03/10 01:31:56;;;;;;;78.65;33.72;;;4.40;99.90;;;;;;5059484;28;20029;-76
2024/03/10 01:34:21;;;;;;;78.88;34.25;;;4.40;99.90;;;;;;5062377;28;20044;-74
2024/03/10 01:36:47;;;;;;;86.07;34.50;;;4.40;99.90;;;;;;5064589;28;20047;-74
2024/03/10 01:39:13;;;;;;;79.25;33.00;;;4.30;99.90;;;;;;5064470;28;20029;-76
2024/03/10 01:41:38;;;;;;;76.32;34.95;;;4.40;99.90;;;;;;5063148;28;20469;-75
2024/03/10 01:44:05;;;;;;;75.57;35.05;;;4.30;99.90;;;;;;5063153;28;20052;-74
2024/03/10 01:46:32;;;;;;;75.20;33.25;;;4.30;99.90;;;;;;5064386;28;20028;-74
2024/03/10 01:48:58;;;;;;;75.10;33.40;;;4.30;99.90;;;;;;5064001;28;20493;-74
2024/03/10 01:51:23;;;;;;;73.05;33.40;;;4.30;99.90;;;;;;5063155;28;20060;-75
2024/03/10 01:53:51;;;;;;;77.25;34.25;;;4.30;99.90;;;;;;5064316;28;20044;-75
2024/03/10 01:56:18;;;;;;;80.05;34.78;;;4.30;99.90;;;;;;5063458;28;20059;-75
2024/03/10 01:58:45;;;;;;;81.47;34.25;;;4.30;99.90;;;;;;5063946;28;20040;-75
2024/03/10 02:01:15;;;;;;;79.72;34.10;;;4.30;99.90;;;;;;5062826;28;20025;-75
2024/03/10 02:03:43;;;;;;;79.88;34.10;;;4.30;99.90;;;;;;5063021;28;20028;-74
2024/03/10 02:06:09;;;;;;;79.05;34.13;;;4.20;99.90;;;;;;5063658;28;20025;-75
2024/03/10 02:08:36;;;;;;;78.28;32.47;;;4.20;99.90;;;;;;5062785;28;20079;-74
2024/03/10 02:11:03;;;;;;;79.55;36.05;;;4.20;99.90;;;;;;5062016;28;20049;-74
2024/03/10 02:13:29;;;;;;;76.72;34.13;;;4.20;99.90;;;;;;5062653;28;20217;-74
2024/03/10 02:16:02;;;;;;;76.68;34.50;;;4.20;99.90;;;;;;5062441;28;20029;-75
2024/03/10 02:18:29;;;;;;;82.32;34.55;;;4.30;99.90;;;;;;5062217;28;20092;-75
2024/03/10 02:20:55;;;;;;;77.93;34.10;;;4.10;99.90;;;;;;5061868;28;20363;-75
2024/03/10 02:23:23;;;;;;;80.40;34.50;;;4.10;99.90;;;;;;5061386;28;20036;-74
2024/03/10 02:25:52;;;;;;;77.68;33.05;;;4.10;99.90;;;;;;5062223;28;20066;-74
2024/03/10 02:28:23;;;;;;;82.22;34.92;;;4.00;99.90;;;;;;5063396;28;20044;-75
2024/03/10 02:30:58;;;;;;;80.88;35.15;;;4.00;99.90;;;;;;5062030;28;20037;-75
2024/03/10 02:47:15;;;;;;;82.82;35.15;;;4.00;99.90;;;;;;5063082;28;20492;-75
2024/03/10 02:49:42;;;;;;;84.28;35.03;;;3.90;99.90;;;;;;5063224;28;20072;-75
2024/03/10 02:52:12;;;;;;;89.80;35.17;;;3.90;99.90;;;;;;5062736;28;20025;-74
2024/03/10 02:54:39;;;;;;;85.47;36.42;;;3.90;99.90;;;;;;5062480;28;20043;-75
2024/03/10 02:57:06;;;;;;;80.70;34.08;;;3.80;99.90;;;;;;5062952;28;20047;-74
2024/03/10 02:59:32;;;;;;;84.00;35.28;;;3.80;99.90;;;;;;5062683;28;20022;-75
2024/03/10 03:01:58;;;;;;;87.13;36.10;;;3.80;99.90;;;;;;5063819;28;20052;-74
2024/03/10 03:04:26;;;;;;;84.90;34.88;;;3.80;99.90;;;;;;5064022;28;20029;-74
2024/03/10 03:06:53;;;;;;;81.93;35.60;;;3.80;99.90;;;;;;5061978;28;20021;-75
2024/03/10 03:09:20;;;;;;;82.03;35.60;;;3.80;99.90;;;;;;5061899;28;20068;-74
2024/03/10 03:11:46;;;;;;;87.95;35.63;;;3.80;99.90;;;;;;5063662;28;20053;-76
2024/03/10 03:14:13;;;;;;;85.10;35.53;;;3.70;99.90;;;;;;5062251;28;20036;-76
2024/03/10 03:16:42;;;;;;;86.85;36.72;;;3.70;99.90;;;;;;5063163;28;20016;-75
2024/03/10 03:19:10;;;;;;;86.10;36.28;;;3.70;99.90;;;;;;5062173;28;20025;-75
2024/03/10 03:21:39;;;;;;;82.47;33.88;;;3.60;99.90;;;;;;5062326;28;20108;-75
2024/03/10 03:24:08;;;;;;;89.93;35.28;;;3.60;99.90;;;;;;5061859;28;20032;-75
2024/03/10 03:26:36;;;;;;;87.28;35.92;;;3.60;99.90;;;;;;5063472;28;20025;-74
2024/03/10 03:29:04;;;;;;;80.60;33.88;;;3.60;99.90;;;;;;5061808;28;20064;-76
2024/03/10 03:31:30;;;;;;;83.07;35.38;;;3.60;99.90;;;;;;5062092;28;20027;-74
2024/03/10 03:33:56;;;;;;;88.53;35.72;;;3.60;99.90;;;;;;5062950;28;20025;-75
2024/03/10 03:36:22;;;;;;;82.40;35.65;;;3.60;99.90;;;;;;5061807;28;20024;-75
2024/03/10 03:38:47;;;;;;;85.28;35.67;;;3.60;99.90;;;;;;5063210;28;20494;-75
2024/03/10 03:41:13;;;;;;;89.13;35.80;;;3.60;99.90;;;;;;5063264;28;20032;-75
2024/03/10 03:43:38;;;;;;;78.72;34.20;;;3.60;99.90;;;;;;5061866;28;20025;-75
2024/03/10 03:46:04;;;;;;;85.47;35.63;;;3.60;99.90;;;;;;5062064;28;20067;-75
2024/03/10 03:48:31;;;;;;;85.35;34.75;;;3.60;99.90;;;;;;5062872;28;20044;-74
2024/03/10 03:50:57;;;;;;;85.07;34.63;;;3.60;99.90;;;;;;5061516;28;20025;-74
2024/03/10 03:53:22;;;;;;;85.25;35.42;;;3.60;99.90;;;;;;5062427;28;20028;-74
2024/03/10 03:55:48;;;;;;;85.65;36.22;;;3.60;99.90;;;;;;5061131;28;20084;-75
2024/03/10 03:58:14;;;;;;;85.05;36.50;;;3.60;99.90;;;;;;5061301;28;20088;-74
2024/03/10 04:00:40;;;;;;;89.60;37.13;;;3.60;99.90;;;;;;5061760;28;20044;-75
2024/03/10 04:03:06;;;;;;;85.22;35.85;;;3.60;99.90;;;;;;5062979;28;20083;-74
2024/03/10 04:05:32;;;;;;;89.90;37.03;;;3.60;99.90;;;;;;5062557;28;20359;-75
2024/03/10 04:07:58;;;;;;;81.03;35.88;;;3.60;99.90;;;;;;5063156;28;20050;-75
2024/03/10 04:10:24;;;;;;;88.22;36.75;;;3.60;99.90;;;;;;5062234;28;20100;-75
2024/03/10 04:12:49;;;;;;;84.18;34.97;;;3.50;99.90;;;;;;5061175;28;20029;-74
2024/03/10 04:15:15;;;;;;;89.22;35.92;;;3.50;99.90;;;;;;5062510;28;20051;-76
2024/03/10 04:17:43;;;;;;;85.22;34.63;;;3.50;99.90;;;;;;5062632;28;20437;-75
2024/03/10 04:20:12;;;;;;;81.18;34.53;;;3.50;99.90;;;;;;5062447;28;20021;-75
2024/03/10 04:22:39;;;;;;;83.05;36.13;;;3.50;99.90;;;;;;5061485;28;20044;-75
2024/03/10 04:25:07;;;;;;;84.63;35.70;;;3.40;99.90;;;;;;5061087;28;20088;-75
2024/03/10 04:27:34;;;;;;;97.32;36.63;;;3.40;99.90;;;;;;5061124;28;20765;-75
2024/03/10 04:29:59;;;;;;;94.32;37.55;;;3.40;99.90;;;;;;5060984;28;20048;-75
2024/03/10 04:32:25;;;;;;;87.93;36.60;;;3.50;99.90;;;;;;5060964;28;20020;-74
2024/03/10 04:34:50;;;;;;;92.57;35.97;;;3.40;99.90;;;;;;5060998;28;20021;-74
2024/03/10 04:37:17;;;;;;;88.55;35.35;;;3.40;99.90;;;;;;5062237;28;20025;-75
2024/03/10 04:39:42;;;;;;;91.38;35.95;;;3.40;99.90;;;;;;5060591;28;20056;-76
2024/03/10 04:42:10;;;;;;;90.60;35.58;;;3.40;99.90;;;;;;5062377;28;20021;-76
2024/03/10 04:44:36;;;;;;;91.38;36.47;;;3.40;99.90;;;;;;5060277;28;20036;-75
2024/03/10 04:47:03;;;;;;;91.20;36.75;;;3.40;99.90;;;;;;5061816;28;20021;-75
2024/03/10 04:49:28;;;;;;;92.00;35.83;;;3.40;99.90;;;;;;5060635;28;20119;-76
2024/03/10 04:51:54;;;;;;;87.75;36.35;;;3.40;99.90;;;;;;5061908;28;20021;-75
2024/03/10 04:54:20;;;;;;;86.22;36.08;;;3.40;99.90;;;;;;5060006;28;20056;-75
2024/03/10 04:56:46;;;;;;;89.05;36.03;;;3.40;99.90;;;;;;5060717;28;20048;-74
2024/03/10 04:59:12;;;;;;;96.07;36.40;;;3.40;99.90;;;;;;5061009;28;20036;-75
2024/03/10 05:01:38;;;;;;;90.25;34.83;;;3.40;99.90;;;;;;5058352;28;20033;-74
2024/03/10 05:04:05;;;;;;;88.88;35.97;;;3.40;99.90;;;;;;5061217;28;20052;-74
2024/03/10 05:06:31;;;;;;;87.82;36.10;;;3.40;99.90;;;;;;5055128;28;20124;-73
2024/03/10 05:08:58;;;;;;;94.22;35.92;;;3.40;99.90;;;;;;5061204;28;20049;-73
2024/03/10 05:11:23;;;;;;;90.75;36.47;;;3.30;99.90;;;;;;5063721;28;20029;-73
2024/03/10 05:13:49;;;;;;;90.00;36.70;;;3.30;99.90;;;;;;5063500;28;20114;-73
2024/03/10 05:16:16;;;;;;;86.53;36.05;;;3.30;99.90;;;;;;5063204;28;20021;-73
2024/03/10 05:18:42;;;;;;;90.15;36.03;;;3.30;99.90;;;;;;5064841;28;20025;-73
2024/03/10 05:21:08;;;;;;;92.65;36.00;;;3.30;99.90;;;;;;5064288;28;20726;-73
2024/03/10 05:23:34;;;;;;;86.68;35.92;;;3.30;99.90;;;;;;5064866;28;20046;-73
2024/03/10 05:25:59;;;;;;;96.93;37.55;;;3.30;99.90;;;;;;5065545;28;20029;-72
2024/03/10 05:28:25;;;;;;;92.95;36.65;;;3.30;99.90;;;;;;5064164;28;20017;-72
2024/03/10 05:30:52;;;;;;;88.10;35.80;;;3.30;99.90;;;;;;5065798;28;20033;-74
2024/03/10 05:33:18;;;;;;;87.05;35.75;;;3.30;99.90;;;;;;5064920;28;20021;-74
2024/03/10 05:35:44;;;;;;;92.95;37.72;;;3.30;99.90;;;;;;5064347;28;20017;-73
2024/03/10 05:38:10;;;;;;;87.25;35.67;;;3.30;99.90;;;;;;5065626;28;20055;-74
2024/03/10 05:40:35;;;;;;;90.03;36.45;;;3.30;99.90;;;;;;5065448;28;20503;-74
2024/03/10 05:43:01;;;;;;;86.15;35.15;;;3.30;99.90;;;;;;5061348;28;20062;-74
2024/03/10 05:45:26;;;;;;;95.40;36.67;;;3.30;99.90;;;;;;5065059;28;20021;-73
2024/03/10 05:47:52;;;;;;;97.93;36.70;;;3.30;99.90;;;;;;5063896;28;20029;-73
2024/03/10 05:50:19;;;;;;;89.05;36.35;;;3.30;99.90;;;;;;5065135;28;20132;-73
2024/03/10 05:52:46;;;;;;;91.38;35.60;;;3.30;99.90;;;;;;5062942;28;20386;-74
2024/03/10 05:55:11;;;;;;;93.22;35.05;;;3.30;99.90;;;;;;5062993;28;20055;-74
2024/03/10 05:57:40;;;;;;;89.53;36.15;;;3.30;99.90;;;;;;5065507;28;20462;-73
2024/03/10 06:00:13;;;;;;;94.22;35.88;;;3.30;99.90;;;;;;5064927;28;20466;-73
2024/03/10 06:02:44;;;;;;;93.95;36.05;;;3.40;99.90;;;;;;5062766;28;20465;-74
2024/03/10 06:05:12;;;;;;;92.18;36.13;;;3.40;99.90;;;;;;5063915;28;20079;-73
2024/03/10 06:07:37;;;;;;;89.88;36.17;;;3.40;99.90;;;;;;5064197;28;20017;-74
2024/03/10 06:10:06;;;;;;;92.55;36.35;;;3.40;99.90;;;;;;5062356;28;20052;-74
2024/03/10 06:12:32;;;;;;;84.47;34.95;;;3.40;99.90;;;;;;5062896;28;20144;-73
2024/03/10 06:14:59;;;;;;;89.55;35.63;;;3.40;99.90;;;;;;5062669;28;20060;-73
2024/03/10 06:17:31;;;;;;;92.07;37.42;;;3.40;99.90;;;;;;5062737;28;20013;-74
2024/03/10 06:25:30;;;;;;;89.65;35.97;;;3.50;99.90;;;;;;5062147;28;20036;-72
2024/03/10 06:27:56;;;;;;;85.70;36.10;;;3.60;99.90;;;;;;5061860;28;20029;-72
2024/03/10 06:30:23;;;;;;;95.13;35.40;;;3.50;99.90;;;;;;5059711;28;20104;-73
2024/03/10 06:32:49;;;;;;;85.45;33.88;;;3.50;99.90;;;;;;5064007;28;20017;-73
2024/03/10 06:35:16;;;;;;;87.53;35.42;;;3.60;99.90;;;;;;5059770;28;20029;-72
2024/03/10 06:37:42;;;;;;;85.53;35.38;;;3.60;99.90;;;;;;5063098;28;20056;-72
2024/03/10 06:40:09;;;;;;;91.45;37.55;;;3.60;99.90;;;;;;5062048;28;20024;-72
2024/03/10 06:42:36;;;;;;;87.00;35.80;;;3.60;99.90;;;;;;5063069;28;20044;-73
2024/03/10 06:45:01;;;;;;;90.10;36.22;;;3.70;99.90;;;;;;5062903;28;20041;-71
2024/03/10 06:47:27;;;;;;;92.47;36.65;;;3.70;99.90;;;;;;5061355;28;20037;-72
2024/03/10 06:49:52;;;;;;;91.68;35.95;;;3.80;99.90;;;;;;5060867;28;20049;-71
2024/03/10 06:52:18;;;;;;;85.72;35.88;;;3.80;99.90;;;;;;5059812;28;20089;-72
2024/03/10 06:54:44;;;;;;;84.05;34.92;;;3.90;99.90;;;;;;5062489;28;20056;-72
2024/03/10 06:57:09;;;;;;;82.97;34.92;;;3.90;99.90;;;;;;5060336;28;20044;-73
2024/03/10 06:59:35;;;;;;;89.10;36.47;;;3.90;99.90;;;;;;5062074;28;20059;-71
2024/03/10 07:02:01;;;;;;;83.88;34.88;;;4.10;99.90;;;;;;5057880;28;20037;-72
2024/03/10 07:04:27;;;;;;;84.43;35.15;;;4.10;99.90;;;;;;5061657;28;21155;-72
2024/03/10 07:06:53;;;;;;;86.93;35.50;;;4.20;99.90;;;;;;5059834;28;20125;-72
2024/03/10 07:09:21;;;;;;;81.70;35.10;;;4.20;99.90;;;;;;5062193;28;20049;-71
2024/03/10 07:11:47;;;;;;;79.70;33.15;;;4.30;99.90;;;;;;5060340;28;20057;-73
2024/03/10 07:14:15;;;;;;;82.03;34.65;;;4.40;99.90;;;;;;5061586;28;20036;-72
2024/03/10 07:16:46;;;;;;;79.18;33.88;;;4.50;99.90;;;;;;5063527;28;20017;-73
2024/03/10 07:19:12;;;;;;;85.05;36.88;;;4.60;99.90;;;;;;5062378;28;20021;-72
2024/03/10 07:21:37;;;;;;;80.50;35.47;;;4.70;99.90;;;;;;5063037;28;20033;-72
2024/03/10 07:24:04;;;;;;;77.50;34.58;;;4.90;99.90;;;;;;5060813;28;20394;-71
2024/03/10 07:26:34;;;;;;;81.43;34.03;;;5.00;99.90;;;;;;5061172;28;20052;-71
2024/03/10 07:29:00;;;;;;;76.93;35.53;;;5.10;99.90;;;;;;5059254;28;20501;-71
2024/03/10 07:31:26;;;;;;;76.78;35.35;;;5.30;99.90;;;;;;5059888;28;20028;-72
2024/03/10 07:33:55;;;;;;;75.22;33.03;;;5.40;99.90;;;;;;5061147;28;20063;-70
2024/03/10 07:36:22;;;;;;;79.97;33.90;;;5.40;99.90;;;;;;5062474;28;20032;-71
2024/03/10 07:38:51;;;;;;;74.00;33.85;;;5.60;99.90;;;;;;5060567;28;20496;-72
2024/03/10 07:41:17;;;;;;;79.07;34.00;;;5.70;99.90;;;;;;5062249;28;20028;-71
2024/03/10 07:43:43;;;;;;;75.47;34.15;;;5.80;99.90;;;;;;5061556;28;20466;-72
2024/03/10 07:46:09;;;;;;;79.38;34.38;;;5.90;99.90;;;;;;5060484;28;20039;-72
2024/03/10 07:48:35;;;;;;;73.88;33.63;;;6.10;99.90;;;;;;5059651;28;20095;-73
2024/03/10 07:51:03;;;;;;;75.90;34.70;;;6.10;99.90;;;;;;5060303;28;20033;-73
2024/03/10 07:53:29;;;;;;;72.90;34.78;;;6.30;99.90;;;;;;5060081;28;20021;-73
2024/03/10 07:55:56;;;;;;;75.40;33.47;;;6.40;99.90;;;;;;5062905;28;20029;-73
2024/03/10 07:58:21;;;;;;;72.82;34.65;;;6.30;99.90;;;;;;5058979;28;20516;-73
2024/03/10 08:00:47;;;;;;;74.72;35.03;;;6.40;99.90;;;;;;5061637;28;20052;-73
2024/03/10 08:03:13;;;;;;;70.95;34.08;;;6.40;99.90;;;;;;5060819;28;20027;-72
2024/03/10 08:05:39;;;;;;;69.97;33.78;;;6.40;99.90;;;;;;5062754;28;20025;-73
2024/03/10 08:08:04;;;;;;;68.15;33.60;;;6.60;99.90;;;;;;5059194;28;20037;-72
2024/03/10 08:10:31;;;;;;;68.57;33.80;;;6.80;99.90;;;;;;5057509;28;20053;-73
2024/03/10 08:12:58;;;;;;;68.93;35.30;;;7.00;99.90;;;;;;5054156;28;20048;-72
2024/03/10 08:15:24;;;;;;;68.20;33.80;;;7.20;99.90;;;;;;5059246;28;20150;-73
2024/03/10 08:17:50;;;;;;;67.70;34.47;;;7.40;99.90;;;;;;5061097;28;20032;-72
2024/03/10 08:20:16;;;;;;;70.93;34.33;;;7.50;99.90;;;;;;5060194;28;20025;-72
2024/03/10 08:22:42;;;;;;;69.88;34.03;;;7.60;99.90;;;;;;5057117;28;20033;-72
2024/03/10 08:25:09;;;;;;;71.22;34.50;;;7.70;99.90;;;;;;5058293;28;20029;-72
2024/03/10 08:27:35;;;;;;;67.70;34.65;;;7.80;99.90;;;;;;5059353;28;20060;-72
2024/03/10 08:30:03;;;;;;;63.28;33.90;;;7.90;99.90;;;;;;5058314;28;20049;-72
2024/03/10 08:32:29;;;;;;;65.57;34.50;;;8.00;99.90;;;;;;5062209;28;20045;-73
2024/03/10 08:34:55;;;;;;;65.93;34.47;;;8.00;99.90;;;;;;5060656;28;20032;-71
2024/03/10 08:37:22;;;;;;;61.60;32.50;;;8.10;99.90;;;;;;5060701;28;20017;-71
2024/03/10 08:39:50;;;;;;;63.38;31.65;;;8.10;99.90;;;;;;5061105;28;20035;-72
2024/03/10 08:42:16;;;;;;;65.25;33.40;;;8.10;99.90;;;;;;5061611;28;20028;-72
2024/03/10 08:44:42;;;;;;;60.78;31.58;;;8.20;99.90;;;;;;5061042;28;20037;-74
2024/03/10 08:47:08;;;;;;;63.35;33.90;;;8.20;99.90;;;;;;5060172;28;20024;-73
2024/03/10 08:49:34;;;;;;;61.65;32.47;;;8.30;99.90;;;;;;5059247;28;20048;-72
2024/03/10 08:52:05;;;;;;;60.20;33.25;;;8.30;99.90;;;;;;5059631;28;20029;-71
2024/03/10 08:54:32;;;;;;;59.00;31.90;;;8.50;99.90;;;;;;5058460;28;20037;-72
2024/03/10 08:56:58;;;;;;;64.63;33.50;;;8.70;99.90;;;;;;5057378;28;20044;-71
2024/03/10 08:59:24;;;;;;;61.15;32.72;;;8.80;99.90;;;;;;5060396;28;20025;-72
2024/03/10 09:01:51;;;;;;;61.22;32.80;;;8.80;99.90;;;;;;5056400;28;20039;-72
2024/03/10 09:04:17;;;;;;;62.05;32.08;;;8.80;99.90;;;;;;5059508;28;20028;-74
2024/03/10 09:06:43;;;;;;;61.95;32.85;;;8.80;99.90;;;;;;5058293;28;20032;-72
2024/03/10 09:09:13;;;;;;;59.50;31.88;;;8.90;99.90;;;;;;5059372;28;20048;-73
2024/03/10 09:11:39;;;;;;;57.75;33.08;;;9.10;99.90;;;;;;5053851;28;20075;-72
2024/03/10 09:14:04;;;;;;;60.03;33.03;;;9.30;99.90;;;;;;5052317;28;20034;-72
2024/03/10 09:16:30;;;;;;;56.47;32.25;;;9.50;99.90;;;;;;5058100;28;20037;-72
2024/03/10 09:18:56;;;;;;;54.10;31.75;;;9.60;99.90;;;;;;5058881;28;20104;-74
2024/03/10 09:21:22;;;;;;;57.10;32.47;;;9.70;99.90;;;;;;5059514;28;20033;-71
2024/03/10 09:23:49;;;;;;;57.83;32.35;;;9.90;99.90;;;;;;5060360;28;20104;-73
2024/03/10 09:26:15;;;;;;;62.80;33.67;;;9.90;99.90;;;;;;5061000;28;21393;-71
2024/03/10 09:28:45;;;;;;;57.15;31.52;;;10.00;99.90;;;;;;5061308;28;20025;-72
2024/03/10 09:31:14;;;;;;;55.40;31.55;;;10.00;99.90;;;;;;5059808;28;20052;-73
2024/03/10 09:33:43;;;;;;;54.03;30.35;;;10.10;99.90;;;;;;5060371;28;20386;-73
2024/03/10 09:36:09;;;;;;;59.20;31.05;;;10.10;99.90;;;;;;5058921;28;20033;-72
2024/03/10 09:38:34;;;;;;;56.35;32.53;;;10.00;99.90;;;;;;5059890;28;20029;-71
2024/03/10 09:41:00;;;;;;;54.83;31.60;;;10.10;99.90;;;;;;5058440;28;20029;-70
2024/03/10 09:43:26;;;;;;;51.75;29.88;;;10.10;99.90;;;;;;5059619;28;20504;-71
2024/03/10 09:45:54;;;;;;;53.58;31.13;;;10.00;99.90;;;;;;5060519;28;20067;-71
2024/03/10 09:48:22;;;;;;;54.67;32.33;;;9.90;99.90;;;;;;5043864;28;20041;-72
2024/03/10 09:50:49;;;;;;;55.70;31.73;;;9.80;99.90;;;;;;5043773;28;20047;-72
2024/03/10 09:53:18;;;;;;;56.05;31.33;;;9.90;99.90;;;;;;5054274;28;20033;-72
2024/03/10 09:55:48;;;;;;;52.05;30.00;;;9.90;99.90;;;;;;5062248;28;20113;-72
2024/03/10 09:58:17;;;;;;;53.45;30.02;;;9.90;99.90;;;;;;5064585;28;20017;-74
2024/03/10 10:00:45;;;;;;;54.40;31.20;;;9.90;99.90;;;;;;5064722;28;20606;-72
2024/03/10 10:03:12;;;;;;;58.22;31.05;;;9.90;99.90;;;;;;5064501;28;20031;-72
2024/03/10 10:05:53;;;;;;;61.70;32.10;;;9.90;99.90;;;;;;5058541;28;20394;-72
2024/03/10 10:08:20;;;;;;;58.22;32.20;;;9.90;99.90;;;;;;5061386;28;20025;-73
2024/03/10 10:10:49;;;;;;;51.50;30.70;;;10.00;99.90;;;;;;5060876;28;20045;-73
2024/03/10 10:13:29;;;;;;;55.28;31.65;;;10.30;99.90;;;;;;5062371;28;20063;-73
2024/03/10 10:15:59;;;;;;;54.05;30.45;;;10.50;99.90;;;;;;5060767;28;20036;-72
2024/03/10 10:18:27;;;;;;;55.03;30.05;;;10.70;99.90;;;;;;5062323;28;20052;-72
2024/03/10 10:20:54;;;;;;;56.40;31.25;;;10.90;99.90;;;;;;5062765;28;20100;-72
2024/03/10 10:23:23;;;;;;;51.35;30.55;;;10.90;99.90;;;;;;5063680;28;20028;-72
2024/03/10 10:26:12;;;;;;;52.58;30.52;;;11.00;99.90;;;;;;5056582;28;20029;-72
2024/03/10 10:28:41;;;;;;;50.17;29.52;;;11.10;99.90;;;;;;5061574;28;20056;-72
2024/03/10 10:31:18;;;;;;;51.05;30.17;;;11.00;99.90;;;;;;5057100;28;20057;-72
2024/03/10 10:33:47;;;;;;;49.20;29.42;;;10.90;99.90;;;;;;5062334;28;20033;-72
2024/03/10 10:36:14;;;;;;;50.08;30.23;;;10.90;99.90;;;;;;5060647;28;20445;-72
2024/03/10 10:38:45;;;;;;;51.88;30.27;;;11.10;99.90;;;;;;5052107;28;20028;-72
2024/03/10 10:41:11;;;;;;;48.67;29.10;;;11.30;99.90;;;;;;5060913;28;20043;-72
2024/03/10 10:43:38;;;;;;;50.30;30.52;;;11.70;99.90;;;;;;5061391;28;20478;-70
2024/03/10 10:46:10;;;;;;;47.33;30.88;;;12.00;99.90;;;;;;5063134;28;20102;-72
2024/03/10 10:48:36;;;;;;;49.63;30.35;;;12.20;99.90;;;;;;5063146;28;20709;-72
2024/03/10 10:51:03;;;;;;;48.13;30.05;;;12.40;99.90;;;;;;5064185;28;20033;-72
2024/03/10 10:53:32;;;;;;;49.92;29.35;;;12.60;99.90;;;;;;5064174;28;20029;-74
2024/03/10 10:55:58;;;;;;;45.70;29.83;;;12.80;99.90;;;;;;5060521;28;20083;-72
2024/03/10 10:58:27;;;;;;;48.63;29.42;;;12.70;99.90;;;;;;5062326;28;20075;-72
2024/03/10 11:01:05;;;;;;;46.75;29.95;;;12.70;99.90;;;;;;5063939;28;20017;-74
2024/03/10 11:03:40;;;;;;;49.35;29.92;;;12.50;99.90;;;;;;5063747;28;20029;-72
2024/03/10 11:06:15;;;;;;;45.70;28.80;;;12.40;99.90;;;;;;5060723;28;20032;-72
2024/03/10 11:08:41;;;;;;;47.40;29.67;;;12.50;99.90;;;;;;5064226;28;20021;-72
2024/03/10 11:11:08;;;;;;;49.17;29.70;;;12.60;99.90;;;;;;5061887;28;20049;-72
2024/03/10 11:13:38;;;;;;;46.83;28.85;;;12.80;99.90;;;;;;5063468;28;20022;-72
2024/03/10 11:16:11;;;;;;;44.60;29.17;;;13.00;99.90;;;;;;5063620;28;20445;-71
2024/03/10 11:18:40;;;;;;;46.90;29.00;;;13.10;99.90;;;;;;5062125;28;20083;-72
2024/03/10 11:21:17;;;;;;;47.58;29.05;;;13.00;99.90;;;;;;5063193;28;20289;-71
2024/03/10 11:23:48;;;;;;;48.78;28.52;;;12.90;99.90;;;;;;5062294;28;20033;-73
2024/03/10 11:26:20;;;;;;;47.53;27.63;;;12.80;99.90;;;;;;5062182;28;20044;-73
2024/03/10 11:28:49;;;;;;;43.53;27.63;;;12.70;99.90;;;;;;5063705;28;20028;-72
2024/03/10 11:31:37;;;;;;;47.90;29.55;;;12.70;99.90;;;;;;5062183;28;20136;-72
2024/03/10 11:34:05;;;;;;;46.38;29.50;;;12.90;99.90;;;;;;5063457;28;20323;-72
2024/03/10 11:36:36;;;;;;;46.08;28.70;;;12.90;99.90;;;;;;5062716;28;20076;-72
2024/03/10 11:39:02;;;;;;;48.78;29.48;;;13.00;99.90;;;;;;5062423;28;20070;-71
2024/03/10 11:41:28;;;;;;;46.95;28.63;;;13.20;99.90;;;;;;5061647;28;20072;-72
2024/03/10 11:43:54;;;;;;;48.50;28.27;;;13.40;99.90;;;;;;5061968;28;20032;-71
2024/03/10 11:46:33;;;;;;;46.10;29.15;;;13.50;99.90;;;;;;5063146;28;20029;-72
2024/03/10 11:48:59;;;;;;;46.83;29.17;;;13.60;99.90;;;;;;5062445;28;20727;-71
2024/03/10 11:51:31;;;;;;;44.67;28.40;;;13.50;99.90;;;;;;5062863;28;20067;-72
2024/03/10 11:53:58;;;;;;;44.30;27.27;;;13.40;99.90;;;;;;5062111;28;20049;-72
2024/03/10 11:56:24;;;;;;;43.08;28.13;;;13.40;99.90;;;;;;5062681;28;20017;-75
2024/03/10 11:58:51;;;;;;;47.90;28.77;;;13.30;99.90;;;;;;5063144;28;20470;-72
2024/03/10 12:01:17;;;;;;;48.38;28.67;;;13.20;99.90;;;;;;5061812;28;20033;-74
2024/03/10 12:03:45;;;;;;;48.13;28.05;;;12.90;99.90;;;;;;5062053;28;20031;-71
2024/03/10 12:06:12;;;;;;;46.15;28.00;;;12.70;99.90;;;;;;5061574;28;20120;-74
2024/03/10 12:08:37;;;;;;;48.63;28.95;;;12.60;99.90;;;;;;5062913;28;20017;-72
2024/03/10 12:11:04;;;;;;;45.65;28.55;;;12.60;99.90;;;;;;5062349;28;20052;-71
2024/03/10 12:13:30;;;;;;;44.17;27.73;;;12.50;99.90;;;;;;5061102;28;20072;-72
2024/03/10 12:16:01;;;;;;;49.20;28.13;;;12.50;99.90;;;;;;5060715;28;20083;-72
2024/03/10 12:18:29;;;;;;;50.17;29.45;;;12.40;99.90;;;;;;5058621;28;20024;-72
2024/03/10 12:20:57;;;;;;;49.53;28.38;;;12.40;99.90;;;;;;5060290;28;20025;-73
2024/03/10 12:23:23;;;;;;;50.33;29.75;;;12.40;99.90;;;;;;5062497;28;20052;-72
2024/03/10 12:25:51;;;;;;;47.30;27.75;;;12.30;99.90;;;;;;5062263;28;20490;-71
2024/03/10 12:28:22;;;;;;;49.55;29.05;;;12.40;99.90;;;;;;5062368;28;20028;-74
2024/03/10 12:30:48;;;;;;;49.50;28.92;;;12.40;99.90;;;;;;5062332;28;21046;-73
2024/03/10 12:33:14;;;;;;;49.15;28.48;;;12.40;99.90;;;;;;5060010;28;20031;-73
2024/03/10 12:35:40;;;;;;;51.08;29.40;;;12.30;99.90;;;;;;5062556;28;20027;-73
2024/03/10 12:38:09;;;;;;;49.08;29.20;;;12.30;99.90;;;;;;5062227;28;20056;-71
2024/03/10 12:40:35;;;;;;;49.22;28.00;;;12.20;99.90;;;;;;5062204;28;20025;-72
2024/03/10 12:43:01;;;;;;;51.83;28.80;;;12.30;99.90;;;;;;5062523;28;20044;-71
2024/03/10 12:45:30;;;;;;;46.40;27.83;;;12.20;99.90;;;;;;5061767;28;20039;-73
2024/03/10 12:47:56;;;;;;;51.60;28.60;;;12.20;99.90;;;;;;5060757;28;20035;-74
2024/03/10 12:50:24;;;;;;;48.20;28.27;;;12.20;99.90;;;;;;5060614;28;20041;-72
2024/03/10 12:52:50;;;;;;;47.88;27.38;;;12.10;99.90;;;;;;5060215;28;20024;-73